LRBC

Details ICAO LRBC (BCM)
Name BACAU
Region Romania
Timezone Europe/Bucharest (UTC+2.0)
Plans Departing 10
Arriving 13
Stats Elevation 607 ft / 185 m (AMSL)
Location 46.521904° 26.910177°
Runways 1
Magnetic Variation 6.068° E
Sunrise 2017-12-14 05:50:07 UTC / 2017-12-14 07:50:07 Local
Sunset 2017-12-14 14:26:42 UTC / 2017-12-14 16:26:42 Local
Advertisement - Login to hide

Runways

ID Width Length Bearing (true) Bearing (mag) Surface Threshold Offset Overrun Length
16 262 ft / 80 m 8,166 ft / 2,489 m 164.87° 158.80° Concrete 0 ft / 0 m 0 ft / 0 m
34 262 ft / 80 m 8,166 ft / 2,489 m 344.87° 338.80° Concrete 0 ft / 0 m 0 ft / 0 m

Map

Weather


0- 5 10 15 20 25 30 35+ Temperature / ° C

Clouds and Precipitation
Forecast for 2017-12-14 00:00 UTC. Updated 2 hours ago

Ground ~20,000 ft ~40,000 ft Winds

METAR

LRBC 140030Z VRB01KT 9999 OVC008 04/03 Q1012

TAF

Not found

Frequencies

Tower 118.60 MHz TWR
Approach 133.70 MHz PRECISION
Approach 118.60 MHz APP
Warning: Do not use this data for real-world aviation or navigation. No guarantee of current accuracy is given.